createdAt,value
2022-12-11T00:00:42.306Z,99478.27
2022-12-11T00:03:29.783Z,99480.88
2022-12-11T00:05:57.417Z,99472.84
2022-12-11T00:08:24.943Z,99471.30
2022-12-11T00:10:52.512Z,99473.02
2022-12-11T00:13:20.026Z,99471.63
2022-12-11T00:15:47.507Z,99473.65
2022-12-11T00:18:15.080Z,99473.77
2022-12-11T00:20:42.946Z,99472.38
2022-12-11T00:23:12.013Z,99471.33
2022-12-11T00:25:47.253Z,99470.63
2022-12-11T00:28:18.834Z,99473.83
2022-12-11T00:30:47.182Z,99474.99
2022-12-11T00:33:15.216Z,99470.20
2022-12-11T00:35:45.727Z,99469.20
2022-12-11T00:38:20.525Z,99469.39
2022-12-11T00:40:49.109Z,99467.73
2022-12-11T00:43:17.146Z,99466.21
2022-12-11T00:45:47.068Z,99471.36
2022-12-11T00:48:14.884Z,99468.11
2022-12-11T00:50:42.763Z,99466.41
2022-12-11T00:53:10.307Z,99462.96
2022-12-11T00:55:40.644Z,99464.49
2022-12-11T00:58:09.214Z,99461.90
2022-12-11T01:00:37.638Z,99456.40
2022-12-11T01:03:06.328Z,99451.73
2022-12-11T01:05:34.050Z,99447.42
2022-12-11T01:08:02.280Z,99441.75
2022-12-11T01:10:29.965Z,99443.77
2022-12-11T01:13:00.964Z,99437.59
2022-12-11T01:15:31.425Z,99435.38
2022-12-11T01:17:59.313Z,99438.27
2022-12-11T01:20:28.019Z,99449.21
2022-12-11T01:22:57.761Z,99456.03
2022-12-11T01:25:26.808Z,99462.69
2022-12-11T01:27:55.799Z,99460.81
2022-12-11T01:30:25.606Z,99468.83
2022-12-11T01:32:53.215Z,99467.96
2022-12-11T01:35:21.012Z,99464.34
2022-12-11T01:37:49.365Z,99457.83
2022-12-11T01:40:18.987Z,99458.98
2022-12-11T01:42:46.665Z,99461.50
2022-12-11T01:45:32.261Z,99461.50
2022-12-11T01:48:02.224Z,99457.05
2022-12-11T01:50:32.368Z,99456.48
2022-12-11T01:53:00.217Z,99456.29
2022-12-11T01:55:28.159Z,99452.65
2022-12-11T01:57:55.793Z,99446.80
2022-12-11T02:00:23.386Z,99442.67
2022-12-11T02:02:50.966Z,99442.81
2022-12-11T02:05:18.548Z,99442.46
2022-12-11T02:07:54.275Z,99436.65
2022-12-11T02:10:28.223Z,99432.53
2022-12-11T02:13:05.050Z,99431.52
2022-12-11T02:16:05.700Z,99431.67
2022-12-11T02:18:52.661Z,99430.16
2022-12-11T02:21:28.389Z,99430.35
2022-12-11T02:24:05.766Z,99429.51
2022-12-11T02:26:52.016Z,99424.39
2022-12-11T02:29:26.117Z,99416.69
2022-12-11T02:32:02.456Z,99415.08
2022-12-11T02:34:37.503Z,99412.46
2022-12-11T02:37:10.606Z,99416.84
2022-12-11T02:39:41.521Z,99414.09
2022-12-11T02:42:11.323Z,99414.05
2022-12-11T02:44:40.862Z,99417.79
2022-12-11T02:47:12.800Z,99411.98
2022-12-11T02:49:44.355Z,99409.95
2022-12-11T02:52:14.670Z,99406.72
2022-12-11T02:54:44.720Z,99407.11
2022-12-11T02:57:17.060Z,99410.20
2022-12-11T02:59:46.410Z,99410.73
2022-12-11T03:02:17.057Z,99409.23
2022-12-11T03:04:47.549Z,99407.17
2022-12-11T03:07:23.287Z,99403.73
2022-12-11T03:09:51.939Z,99400.33
2022-12-11T03:12:25.949Z,99401.33
2022-12-11T03:14:53.896Z,99398.05
2022-12-11T03:17:25.378Z,99392.88
2022-12-11T03:20:15.956Z,99389.25
2022-12-11T03:23:05.303Z,99392.09
2022-12-11T03:25:43.672Z,99388.10
2022-12-11T03:28:19.419Z,99387.20
2022-12-11T03:30:51.324Z,99382.23
2022-12-11T03:33:35.629Z,99378.48
2022-12-11T03:36:12.525Z,99377.61
2022-12-11T03:39:01.773Z,99374.35
2022-12-11T03:41:32.995Z,99373.30
2022-12-11T03:44:01.323Z,99369.35
2022-12-11T03:46:36.815Z,99367.61
2022-12-11T03:49:13.078Z,99366.08
2022-12-11T03:51:42.296Z,99368.48
2022-12-11T03:54:11.464Z,99366.42
2022-12-11T03:56:43.132Z,99368.83
2022-12-11T03:59:10.877Z,99370.36
2022-12-11T04:01:38.862Z,99367.30
2022-12-11T04:04:06.422Z,99365.29
2022-12-11T04:06:34.023Z,99364.48
2022-12-11T04:09:01.548Z,99359.42
2022-12-11T04:11:34.779Z,99360.70
2022-12-11T04:14:29.942Z,99361.29
2022-12-11T04:16:59.432Z,99362.02
2022-12-11T04:19:43.472Z,99361.20
2022-12-11T04:22:32.453Z,99362.77
2022-12-11T04:25:05.306Z,99359.67
2022-12-11T04:27:48.974Z,99358.46
2022-12-11T04:30:23.057Z,99358.97
2022-12-11T04:32:51.741Z,99357.63
2022-12-11T04:35:20.328Z,99359.35
2022-12-11T04:37:48.747Z,99362.42
2022-12-11T04:40:18.629Z,99367.20
2022-12-11T04:42:46.479Z,99372.98
2022-12-11T04:45:14.463Z,99370.58
2022-12-11T04:47:42.326Z,99364.23
2022-12-11T04:50:14.303Z,99363.16
2022-12-11T04:52:42.804Z,99360.73
2022-12-11T04:55:11.716Z,99358.49
2022-12-11T04:57:39.707Z,99355.91
2022-12-11T05:00:10.361Z,99354.18
2022-12-11T05:02:41.299Z,99354.13
2022-12-11T05:05:11.182Z,99355.15
2022-12-11T05:07:39.000Z,99350.70
2022-12-11T05:10:07.545Z,99352.60
2022-12-11T05:12:35.090Z,99354.82
2022-12-11T05:15:02.710Z,99358.41
2022-12-11T05:17:30.220Z,99368.33
2022-12-11T05:19:57.685Z,99366.13
2022-12-11T05:22:25.229Z,99366.59
2022-12-11T05:24:52.727Z,99363.64
2022-12-11T05:27:20.966Z,99360.73
2022-12-11T05:29:48.486Z,99364.27
2022-12-11T05:32:16.073Z,99366.08
2022-12-11T05:34:43.839Z,99364.34
2022-12-11T05:37:11.384Z,99369.27
2022-12-11T05:39:39.253Z,99365.00
2022-12-11T05:42:06.758Z,99359.00
2022-12-11T05:44:34.602Z,99360.02
2022-12-11T05:47:02.109Z,99359.14
2022-12-11T05:49:31.125Z,99355.55
2022-12-11T05:51:58.912Z,99354.14
2022-12-11T05:54:26.385Z,99350.53
2022-12-11T05:56:53.900Z,99344.95
2022-12-11T05:59:21.572Z,99344.32
2022-12-11T06:01:49.224Z,99340.93
2022-12-11T06:04:16.869Z,99342.46
2022-12-11T06:06:44.380Z,99341.84
2022-12-11T06:09:15.484Z,99337.73
2022-12-11T06:11:43.322Z,99336.36
2022-12-11T06:14:11.661Z,99340.95
2022-12-11T06:16:39.350Z,99337.38
2022-12-11T06:19:07.127Z,99333.95
2022-12-11T06:21:34.734Z,99336.14
2022-12-11T06:24:03.813Z,99329.29
2022-12-11T06:26:31.990Z,99323.98
2022-12-11T06:28:59.658Z,99322.39
2022-12-11T06:31:27.887Z,99320.83
2022-12-11T06:33:55.765Z,99321.01
2022-12-11T06:36:24.866Z,99320.52
2022-12-11T06:38:55.301Z,99315.27
2022-12-11T06:41:22.850Z,99316.34
2022-12-11T06:43:50.826Z,99318.74
2022-12-11T06:46:19.912Z,99315.33
2022-12-11T06:48:50.545Z,99322.15
2022-12-11T06:51:20.798Z,99321.98
2022-12-11T06:53:53.363Z,99321.64
2022-12-11T06:56:21.553Z,99319.41
2022-12-11T06:58:49.748Z,99320.91
2022-12-11T07:01:26.204Z,99315.63
2022-12-11T07:03:58.767Z,99314.08
2022-12-11T07:06:28.416Z,99308.05
2022-12-11T07:08:56.825Z,99311.64
2022-12-11T07:11:24.610Z,99309.57
2022-12-11T07:13:52.165Z,99308.84
2022-12-11T07:16:19.771Z,99309.83
2022-12-11T07:18:50.043Z,99305.23
2022-12-11T07:21:19.395Z,99308.83
2022-12-11T07:23:47.853Z,99307.48
2022-12-11T07:26:17.993Z,99306.43
2022-12-11T07:28:45.934Z,99307.44
2022-12-11T07:31:21.500Z,99306.94
2022-12-11T07:33:57.077Z,99306.50
2022-12-11T07:36:25.354Z,99305.89
2022-12-11T07:38:53.811Z,99305.27
2022-12-11T07:41:21.968Z,99307.86
2022-12-11T07:43:49.598Z,99311.80
2022-12-11T07:46:20.245Z,99314.89
2022-12-11T07:48:48.841Z,99317.09
2022-12-11T07:51:27.606Z,99321.65
2022-12-11T07:54:01.356Z,99329.46
2022-12-11T07:56:30.218Z,99326.84
2022-12-11T07:59:02.236Z,99325.43
2022-12-11T08:01:31.847Z,99324.34
2022-12-11T08:03:59.459Z,99321.25
2022-12-11T08:06:30.025Z,99321.93
2022-12-11T08:08:59.850Z,99325.67
2022-12-11T08:11:28.495Z,99328.23
2022-12-11T08:13:56.385Z,99333.14
2022-12-11T08:16:23.939Z,99329.88
2022-12-11T08:18:51.875Z,99327.18
2022-12-11T08:21:22.720Z,99329.25
2022-12-11T08:23:51.776Z,99327.19
2022-12-11T08:26:23.252Z,99321.73
2022-12-11T08:28:51.027Z,99321.05
2022-12-11T08:31:19.993Z,99321.60
2022-12-11T08:33:48.558Z,99312.06
2022-12-11T08:36:18.902Z,99312.06
2022-12-11T08:38:47.128Z,99309.21
2022-12-11T08:41:15.767Z,99302.73
2022-12-11T08:43:44.618Z,99302.20
2022-12-11T08:46:13.536Z,99306.33
2022-12-11T08:48:42.739Z,99305.79
2022-12-11T08:51:15.790Z,99303.54
2022-12-11T08:53:44.276Z,99304.01
2022-12-11T08:56:15.076Z,99300.23
2022-12-11T08:58:43.772Z,99297.48
2022-12-11T09:01:17.971Z,99297.33
2022-12-11T09:03:45.541Z,99287.77
2022-12-11T09:06:16.664Z,99288.85
2022-12-11T09:08:51.674Z,99283.92
2022-12-11T09:11:29.113Z,99281.23
2022-12-11T09:13:58.934Z,99275.81
2022-12-11T09:16:30.158Z,99270.73
2022-12-11T09:18:59.091Z,99262.73
2022-12-11T09:21:29.236Z,99256.75
2022-12-11T09:23:59.894Z,99255.73
2022-12-11T09:26:29.999Z,99252.38
2022-12-11T09:28:58.435Z,99249.52
2022-12-11T09:31:29.214Z,99245.48
2022-12-11T09:33:59.496Z,99242.66
2022-12-11T09:36:27.911Z,99237.59
2022-12-11T09:38:56.124Z,99234.41
2022-12-11T09:41:23.603Z,99233.25
2022-12-11T09:44:14.390Z,99238.39
2022-12-11T09:46:42.589Z,99236.70
2022-12-11T09:49:42.525Z,99229.70
2022-12-11T09:52:26.688Z,99224.04
2022-12-11T09:55:14.922Z,99218.06
2022-12-11T09:57:56.114Z,99213.81
2022-12-11T10:00:32.139Z,99212.45
2022-12-11T10:03:17.766Z,99213.17
2022-12-11T10:05:57.337Z,99213.04
2022-12-11T10:08:33.440Z,99206.27
2022-12-11T10:11:40.256Z,99205.11
2022-12-11T10:14:26.875Z,99204.77
2022-12-11T10:17:02.079Z,99202.41
2022-12-11T10:19:31.992Z,99198.33
2022-12-11T10:22:01.438Z,99192.51
2022-12-11T10:27:33.091Z,99196.20
2022-12-11T10:30:34.501Z,99196.67
2022-12-11T10:33:39.285Z,99198.05
2022-12-11T10:36:09.132Z,99194.84
2022-12-11T10:38:45.278Z,99190.59
2022-12-11T10:41:17.358Z,99187.89
2022-12-11T10:43:48.399Z,99180.74
2022-12-11T10:46:19.281Z,99174.44
2022-12-11T10:48:55.889Z,99170.02
2022-12-11T10:51:40.464Z,99176.33
2022-12-11T10:54:24.802Z,99170.02
2022-12-11T10:56:53.956Z,99168.66
2022-12-11T10:59:29.135Z,99160.61
2022-12-11T11:01:58.040Z,99158.20
2022-12-11T11:04:44.738Z,99146.45
2022-12-11T11:07:18.087Z,99135.55
2022-12-11T11:09:46.999Z,99133.70
2022-12-11T11:12:27.570Z,99132.52
2022-12-11T11:15:04.056Z,99132.73
2022-12-11T11:17:35.468Z,99134.27
2022-12-11T11:20:14.480Z,99128.13
2022-12-11T11:22:47.428Z,99128.61
2022-12-11T11:25:21.756Z,99126.69
2022-12-11T11:28:19.469Z,99127.97
2022-12-11T11:31:11.656Z,99123.17
2022-12-11T11:33:50.969Z,99114.34
2022-12-11T11:36:22.883Z,99117.22
2022-12-11T11:39:07.373Z,99117.69
2022-12-11T11:41:49.387Z,99115.95
2022-12-11T11:44:25.371Z,99116.80
2022-12-11T11:46:59.547Z,99112.17
2022-12-11T11:49:59.035Z,99109.27
2022-12-11T11:52:55.935Z,99103.83
2022-12-11T11:55:37.760Z,99101.58
2022-12-11T11:58:15.417Z,99098.99
2022-12-11T12:00:43.584Z,99097.27
2022-12-11T12:03:15.363Z,99101.71
2022-12-11T12:05:57.580Z,99098.16
2022-12-11T12:09:04.054Z,99094.62
2022-12-11T12:11:47.639Z,99091.92
2022-12-11T12:14:54.727Z,99086.08
2022-12-11T12:17:39.037Z,99079.40
2022-12-11T12:20:28.764Z,99071.87
2022-12-11T12:23:02.645Z,99073.00
2022-12-11T12:25:44.745Z,99068.00
2022-12-11T12:28:45.134Z,99062.70
2022-12-11T12:31:37.322Z,99058.26
2022-12-11T12:34:05.167Z,99057.71
2022-12-11T12:37:04.984Z,99058.40
2022-12-11T12:39:35.681Z,99055.66
2022-12-11T12:42:25.532Z,99052.06
2022-12-11T12:45:16.491Z,99052.59
2022-12-11T12:47:53.061Z,99055.14
2022-12-11T12:50:26.696Z,99052.73
2022-12-11T12:52:56.801Z,99054.28
2022-12-11T12:55:29.017Z,99049.88
2022-12-11T12:58:08.318Z,99049.06
2022-12-11T13:00:42.295Z,99045.68
2022-12-11T13:03:16.231Z,99044.33
2022-12-11T13:05:55.415Z,99036.15
2022-12-11T13:08:28.912Z,99035.48
2022-12-11T13:11:07.185Z,99039.35
2022-12-11T13:13:41.031Z,99036.60
2022-12-11T13:16:25.179Z,99034.71
2022-12-11T13:18:53.657Z,99037.08
2022-12-11T13:21:40.085Z,99038.07
2022-12-11T13:24:28.938Z,99035.65
2022-12-11T13:26:56.920Z,99037.67
2022-12-11T13:29:41.812Z,99036.14
2022-12-11T13:32:09.494Z,99032.59
2022-12-11T13:34:43.930Z,99026.80
2022-12-11T13:37:32.959Z,99025.58
2022-12-11T13:40:08.931Z,99020.63
2022-12-11T13:42:47.700Z,99019.20
2022-12-11T13:45:23.656Z,99013.75
2022-12-11T13:47:51.459Z,99012.21
2022-12-11T13:50:25.109Z,99012.72
2022-12-11T13:52:58.177Z,99006.56
2022-12-11T13:55:34.830Z,99005.02
2022-12-11T13:58:02.660Z,99007.72
2022-12-11T14:00:33.442Z,99002.27
2022-12-11T14:03:07.475Z,98998.35
2022-12-11T14:05:35.540Z,99000.73
2022-12-11T14:08:10.315Z,99000.36
2022-12-11T14:10:39.891Z,99000.02
2022-12-11T14:13:20.567Z,98996.73
2022-12-11T14:15:48.314Z,98994.46
2022-12-11T14:18:24.774Z,98995.14
2022-12-11T14:20:58.239Z,98991.05
2022-12-11T14:23:29.835Z,98992.42
2022-12-11T14:26:03.526Z,98990.90
2022-12-11T14:28:38.181Z,98991.10
2022-12-11T14:31:06.776Z,98987.05
2022-12-11T14:33:43.733Z,98988.77
2022-12-11T14:36:11.736Z,98989.98
2022-12-11T14:38:55.636Z,98989.84
2022-12-11T14:41:29.642Z,98998.17
2022-12-11T14:44:00.536Z,99000.19
2022-12-11T14:46:38.580Z,99002.89
2022-12-11T14:49:17.729Z,99002.36
2022-12-11T14:51:46.594Z,98997.39
2022-12-11T14:54:43.255Z,98990.06
2022-12-11T14:57:20.329Z,98987.84
2022-12-11T14:59:50.698Z,98984.99
2022-12-11T15:02:26.310Z,98983.33
2022-12-11T15:05:03.202Z,98987.27
2022-12-11T15:07:30.952Z,98983.90
2022-12-11T15:09:58.479Z,98983.39
2022-12-11T15:12:26.270Z,98980.50
2022-12-11T15:14:57.211Z,98978.11
2022-12-11T15:17:26.157Z,98975.70
2022-12-11T15:20:07.397Z,98974.30
2022-12-11T15:22:35.650Z,98975.32
2022-12-11T15:25:04.119Z,98975.33
2022-12-11T15:27:39.557Z,98972.79
2022-12-11T15:30:26.885Z,98971.79
2022-12-11T15:33:10.598Z,98967.49
2022-12-11T15:35:40.536Z,98966.65
2022-12-11T15:38:30.853Z,98970.23
2022-12-11T15:40:58.477Z,98972.07
2022-12-11T15:43:27.804Z,98977.15
2022-12-11T15:45:55.498Z,98978.80
2022-12-11T15:48:23.232Z,98979.80
2022-12-11T15:50:50.834Z,98981.65
2022-12-11T15:53:18.362Z,98983.66
2022-12-11T15:55:46.471Z,98981.92
2022-12-11T15:58:18.496Z,98979.34
2022-12-11T16:00:46.808Z,98977.84
2022-12-11T16:03:16.235Z,98977.02
2022-12-11T16:05:44.838Z,98973.59
2022-12-11T16:08:18.723Z,98973.25
2022-12-11T16:10:47.443Z,98973.23
2022-12-11T16:13:15.348Z,98973.77
2022-12-11T16:15:44.946Z,98976.00
2022-12-11T16:18:21.696Z,98977.20
2022-12-11T16:20:51.182Z,98976.20
2022-12-11T16:23:18.991Z,98975.38
2022-12-11T16:25:47.236Z,98968.22
2022-12-11T16:28:18.030Z,98962.09
2022-12-11T16:30:45.689Z,98964.27
2022-12-11T16:33:14.343Z,98959.15
2022-12-11T16:35:42.842Z,98960.33
2022-12-11T16:38:11.720Z,98960.85
2022-12-11T16:40:39.321Z,98960.04
2022-12-11T16:43:06.930Z,98964.31
2022-12-11T16:45:34.546Z,98959.39
2022-12-11T16:48:05.855Z,98959.23
2022-12-11T16:50:33.351Z,98956.33
2022-12-11T16:53:00.920Z,98951.90
2022-12-11T16:55:28.422Z,98953.27
2022-12-11T16:57:55.975Z,98954.67
2022-12-11T17:00:23.852Z,98956.94
2022-12-11T17:02:51.985Z,98957.66
2022-12-11T17:05:19.972Z,98955.95
2022-12-11T17:07:47.516Z,98958.70
2022-12-11T17:10:15.087Z,98955.64
2022-12-11T17:12:42.558Z,98955.13
2022-12-11T17:15:10.655Z,98954.63
2022-12-11T17:17:38.472Z,98952.58
2022-12-11T17:20:06.803Z,98952.41
2022-12-11T17:22:35.938Z,98945.59
2022-12-11T17:25:03.900Z,98946.59
2022-12-11T17:27:31.776Z,98942.87
2022-12-11T17:29:59.370Z,98938.44
2022-12-11T17:32:26.982Z,98935.24
2022-12-11T17:34:54.738Z,98930.67
2022-12-11T17:37:22.346Z,98925.23
2022-12-11T17:39:50.077Z,98919.98
2022-12-11T17:42:17.810Z,98914.55
2022-12-11T17:44:45.539Z,98912.00
2022-12-11T17:47:13.296Z,98912.34
2022-12-11T17:49:41.410Z,98910.45
2022-12-11T17:52:09.152Z,98911.14
2022-12-11T17:54:39.268Z,98909.59
2022-12-11T17:57:06.967Z,98908.57
2022-12-11T17:59:34.640Z,98911.29
2022-12-11T18:02:02.435Z,98907.70
2022-12-11T18:04:30.069Z,98906.51
2022-12-11T18:06:57.709Z,98907.89
2022-12-11T18:09:25.327Z,98901.76
2022-12-11T18:11:53.072Z,98902.27
2022-12-11T18:14:20.702Z,98900.55
2022-12-11T18:16:48.680Z,98897.98
2022-12-11T18:19:16.648Z,98906.00
2022-12-11T18:21:45.805Z,98905.13
2022-12-11T18:24:13.337Z,98900.02
2022-12-11T18:26:42.998Z,98895.59
2022-12-11T18:29:10.989Z,98888.77
2022-12-11T18:31:42.554Z,98885.73
2022-12-11T18:34:11.311Z,98888.33
2022-12-11T18:36:40.756Z,98886.14
2022-12-11T18:39:08.743Z,98882.91
2022-12-11T18:41:36.366Z,98887.19
2022-12-11T18:44:09.541Z,98887.35
2022-12-11T18:46:39.392Z,98887.54
2022-12-11T18:49:07.540Z,98888.55
2022-12-11T18:51:35.933Z,98889.57
2022-12-11T18:54:03.997Z,98891.45
2022-12-11T18:56:31.777Z,98889.90
2022-12-11T18:58:59.376Z,98888.01
2022-12-11T19:01:29.008Z,98890.70
2022-12-11T19:04:04.227Z,98887.46
2022-12-11T19:06:35.530Z,98887.80
2022-12-11T19:09:05.136Z,98886.80
2022-12-11T19:11:35.087Z,98887.65
2022-12-11T19:14:05.272Z,98887.81
2022-12-11T19:16:36.796Z,98885.94
2022-12-11T19:19:09.881Z,98882.17
2022-12-11T19:21:38.490Z,98883.52
2022-12-11T19:24:08.901Z,98880.62
2022-12-11T19:26:37.074Z,98878.73
2022-12-11T19:29:05.203Z,98875.32
2022-12-11T19:31:33.819Z,98876.31
2022-12-11T19:34:02.867Z,98880.06
2022-12-11T19:36:31.043Z,98879.23
2022-12-11T19:39:01.884Z,98882.49
2022-12-11T19:41:30.995Z,98880.45
2022-12-11T19:43:59.557Z,98886.60
2022-12-11T19:46:28.781Z,98882.84
2022-12-11T19:48:58.053Z,98881.14
2022-12-11T19:51:29.636Z,98876.35
2022-12-11T19:53:57.315Z,98872.09
2022-12-11T19:56:25.030Z,98871.23
2022-12-11T19:58:52.688Z,98873.27
2022-12-11T20:01:28.388Z,98867.98
2022-12-11T20:03:59.599Z,98867.77
2022-12-11T20:06:29.468Z,98864.20
2022-12-11T20:08:57.607Z,98867.95
2022-12-11T20:11:26.230Z,98868.98
2022-12-11T20:13:55.578Z,98869.17
2022-12-11T20:16:39.567Z,98867.48
2022-12-11T20:19:11.067Z,98867.47
2022-12-11T20:21:38.672Z,98869.85
2022-12-11T20:24:06.483Z,98866.79
2022-12-11T20:26:36.475Z,98869.16
2022-12-11T20:29:07.355Z,98870.37
2022-12-11T20:31:36.885Z,98871.73
2022-12-11T20:34:05.009Z,98874.62
2022-12-11T20:36:33.115Z,98870.73
2022-12-11T20:39:00.874Z,98869.70
2022-12-11T20:41:29.387Z,98871.25
2022-12-11T20:43:57.082Z,98866.49
2022-12-11T20:46:26.328Z,98866.86
2022-12-11T20:48:55.886Z,98866.04
2022-12-11T20:51:26.295Z,98863.34
2022-12-11T20:53:58.734Z,98855.86
2022-12-11T20:56:29.300Z,98852.65
2022-12-11T20:58:58.443Z,98847.21
2022-12-11T21:01:28.199Z,98842.45
2022-12-11T21:03:56.393Z,98841.80
2022-12-11T21:06:25.648Z,98837.34
2022-12-11T21:08:53.333Z,98832.90
2022-12-11T21:11:21.584Z,98830.85
2022-12-11T21:13:49.490Z,98824.55
2022-12-11T21:16:17.550Z,98823.53
2022-12-11T21:18:46.529Z,98821.66
2022-12-11T21:21:14.765Z,98824.23
2022-12-11T21:23:42.362Z,98822.55
2022-12-11T21:26:10.429Z,98826.32
2022-12-11T21:28:38.076Z,98824.63
2022-12-11T21:31:08.888Z,98822.09
2022-12-11T21:33:36.543Z,98816.98
2022-12-11T21:36:06.169Z,98813.23
2022-12-11T21:38:33.761Z,98813.55
2022-12-11T21:41:09.844Z,98816.79
2022-12-11T21:43:42.757Z,98820.38
2022-12-11T21:46:27.664Z,98821.40
2022-12-11T21:48:55.394Z,98820.90
2022-12-11T21:51:35.737Z,98815.11
2022-12-11T21:54:06.878Z,98811.04
2022-12-11T21:56:34.525Z,98808.48
2022-12-11T21:59:02.227Z,98807.79
2022-12-11T22:01:40.856Z,98809.85
2022-12-11T22:04:10.567Z,98811.73
2022-12-11T22:06:41.915Z,98812.23
2022-12-11T22:09:12.325Z,98806.95
2022-12-11T22:11:41.799Z,98808.33
2022-12-11T22:14:13.280Z,98806.29
2022-12-11T22:16:41.782Z,98803.75
2022-12-11T22:19:09.628Z,98800.35
2022-12-11T22:21:37.953Z,98799.84
2022-12-11T22:24:05.630Z,98800.18
2022-12-11T22:26:33.193Z,98798.32
2022-12-11T22:29:00.717Z,98795.42
2022-12-11T22:31:28.251Z,98795.07
2022-12-11T22:33:56.338Z,98793.02
2022-12-11T22:36:26.813Z,98786.89
2022-12-11T22:38:55.305Z,98788.61
2022-12-11T22:41:29.548Z,98788.11
2022-12-11T22:43:58.381Z,98785.20
2022-12-11T22:46:28.876Z,98785.71
2022-12-11T22:48:58.116Z,98785.38
2022-12-11T22:51:25.636Z,98782.65
2022-12-11T22:53:53.115Z,98779.58
2022-12-11T22:56:21.069Z,98780.79
2022-12-11T22:58:48.609Z,98779.92
2022-12-11T23:01:20.174Z,98781.80
2022-12-11T23:03:47.830Z,98782.31
2022-12-11T23:06:18.284Z,98777.54
2022-12-11T23:08:46.148Z,98773.95
2022-12-11T23:11:15.105Z,98770.90
2022-12-11T23:13:43.140Z,98769.87
2022-12-11T23:16:11.819Z,98769.88
2022-12-11T23:18:40.295Z,98769.54
2022-12-11T23:21:09.866Z,98769.53
2022-12-11T23:23:37.468Z,98769.19
2022-12-11T23:26:06.833Z,98769.38
2022-12-11T23:28:34.370Z,98767.15
2022-12-11T23:31:02.069Z,98769.20
2022-12-11T23:33:29.631Z,98771.41
2022-12-11T23:35:58.186Z,98770.90
2022-12-11T23:38:25.902Z,98767.83
2022-12-11T23:40:53.747Z,98771.08
2022-12-11T23:43:22.174Z,98769.36
2022-12-11T23:45:49.984Z,98770.05
2022-12-11T23:48:18.469Z,98770.06
2022-12-11T23:50:46.273Z,98769.54
2022-12-11T23:53:13.822Z,98772.61
2022-12-11T23:55:43.707Z,98774.14
2022-12-11T23:58:11.937Z,98772.60
